Time;durP1;ratioP1;P1;durP2;ratioP2;P2;SDS_P1;SDS_P2;PMS_P1;PMS_P2;Temp;Humidity;BMP_temperature;BMP_pressure;BME280_temperature;BME280_humidity;BME280_pressure;Samples;Min_cycle;Max_cycle;Signal;HPM_P1;HPM_P2
2023/12/13 00:01:42;;;;;;;8.27;1.55;;;;;;;;;;6390324;22;20021;-77
2023/12/13 00:04:07;;;;;;;5.35;1.90;;;;;;;;;;6389096;22;20010;-77
2023/12/13 00:06:34;;;;;;;6.47;1.52;;;;;;;;;;6361664;22;20024;-77
2023/12/13 00:09:01;;;;;;;7.13;1.60;;;;;;;;;;6389673;22;20025;-77
2023/12/13 00:11:26;;;;;;;6.22;1.17;;;;;;;;;;6389918;22;20019;-77
2023/12/13 00:13:51;;;;;;;9.60;1.60;;;;;;;;;;6390773;22;20376;-76
2023/12/13 00:16:18;;;;;;;15.05;2.60;;;;;;;;;;6361271;22;20095;-77
2023/12/13 00:18:46;;;;;;;10.32;1.90;;;;;;;;;;6389759;22;20095;-76
2023/12/13 00:21:13;;;;;;;6.20;1.42;;;;;;;;;;6361158;22;20563;-77
2023/12/13 00:23:38;;;;;;;7.45;1.50;;;;;;;;;;6389455;22;20002;-76
2023/12/13 00:26:04;;;;;;;7.82;1.80;;;;;;;;;;6362015;22;20093;-77
2023/12/13 00:28:29;;;;;;;6.40;1.42;;;;;;;;;;6389533;22;20017;-77
2023/12/13 00:30:55;;;;;;;12.30;2.08;;;;;;;;;;6361820;22;20018;-77
2023/12/13 00:33:20;;;;;;;10.27;1.95;;;;;;;;;;6390023;22;20013;-73
2023/12/13 00:35:46;;;;;;;12.43;1.90;;;;;;;;;;6361487;22;20009;-74
2023/12/13 00:38:12;;;;;;;10.93;1.90;;;;;;;;;;6391593;22;20009;-74
2023/12/13 00:40:37;;;;;;;6.10;1.40;;;;;;;;;;6389913;22;20009;-74
2023/12/13 00:43:02;;;;;;;11.05;1.70;;;;;;;;;;6361410;22;20418;-74
2023/12/13 00:45:28;;;;;;;11.07;1.73;;;;;;;;;;6390346;22;20034;-74
2023/12/13 00:47:53;;;;;;;11.00;2.00;;;;;;;;;;6361973;22;20014;-74
2023/12/13 00:50:19;;;;;;;12.20;1.98;;;;;;;;;;6390261;22;20006;-74
2023/12/13 00:52:44;;;;;;;6.10;1.50;;;;;;;;;;6390202;22;20018;-74
2023/12/13 00:55:09;;;;;;;5.18;1.92;;;;;;;;;;6390395;22;20010;-74
2023/12/13 00:57:35;;;;;;;9.20;2.10;;;;;;;;;;6390882;22;20357;-74
2023/12/13 01:00:01;;;;;;;12.95;2.15;;;;;;;;;;6365750;22;20066;-73
2023/12/13 01:02:27;;;;;;;12.80;1.85;;;;;;;;;;6405022;22;19994;-74
2023/12/13 01:04:52;;;;;;;9.25;1.85;;;;;;;;;;6408834;22;20010;-74
2023/12/13 01:07:18;;;;;;;11.32;2.38;;;;;;;;;;6394909;22;20691;-74
2023/12/13 01:09:44;;;;;;;6.55;1.50;;;;;;;;;;6391084;22;20021;-74
2023/12/13 01:12:10;;;;;;;10.65;1.80;;;;;;;;;;6390402;22;20037;-74
2023/12/13 01:14:35;;;;;;;7.32;1.92;;;;;;;;;;6390157;22;20062;-73
2023/12/13 01:17:01;;;;;;;13.38;2.00;;;;;;;;;;6390949;22;20387;-74
2023/12/13 01:19:26;;;;;;;13.43;3.00;;;;;;;;;;6389547;22;20399;-74
2023/12/13 01:21:52;;;;;;;8.52;1.98;;;;;;;;;;6361881;22;20025;-74
2023/12/13 01:24:17;;;;;;;12.52;2.05;;;;;;;;;;6389718;22;20640;-74
2023/12/13 01:26:43;;;;;;;7.13;1.50;;;;;;;;;;6390232;22;20002;-73
2023/12/13 01:29:09;;;;;;;9.27;1.88;;;;;;;;;;6390160;22;20034;-74
2023/12/13 01:31:37;;;;;;;11.13;1.92;;;;;;;;;;6389852;22;20020;-74
2023/12/13 01:34:03;;;;;;;11.38;1.75;;;;;;;;;;6361099;22;20021;-74
2023/12/13 01:36:28;;;;;;;5.75;1.58;;;;;;;;;;6389740;22;20009;-74
2023/12/13 01:38:54;;;;;;;8.63;1.75;;;;;;;;;;6390207;22;20017;-74
2023/12/13 01:41:19;;;;;;;10.45;1.77;;;;;;;;;;6390287;22;20054;-74
2023/12/13 01:43:45;;;;;;;13.40;1.90;;;;;;;;;;6390119;22;20017;-74
2023/12/13 01:46:12;;;;;;;8.40;2.17;;;;;;;;;;6389915;22;20596;-74
2023/12/13 01:48:38;;;;;;;13.65;1.55;;;;;;;;;;6389661;22;20870;-73
2023/12/13 01:51:03;;;;;;;7.30;1.50;;;;;;;;;;6389905;22;20022;-74
2023/12/13 01:53:32;;;;;;;8.50;1.90;;;;;;;;;;6389810;22;20005;-74
2023/12/13 01:55:57;;;;;;;7.60;1.85;;;;;;;;;;6390199;22;19994;-74
2023/12/13 01:58:24;;;;;;;7.75;1.65;;;;;;;;;;6389923;22;20021;-74
2023/12/13 02:00:51;;;;;;;12.13;2.22;;;;;;;;;;6360930;22;20014;-73
2023/12/13 02:03:18;;;;;;;9.02;1.92;;;;;;;;;;6389456;22;20041;-74
2023/12/13 02:05:44;;;;;;;8.43;2.33;;;;;;;;;;6360621;22;20062;-73
2023/12/13 02:08:09;;;;;;;8.07;1.80;;;;;;;;;;6361468;22;20456;-74
2023/12/13 02:10:35;;;;;;;10.18;2.03;;;;;;;;;;6361036;22;20018;-74
2023/12/13 02:13:00;;;;;;;8.40;1.92;;;;;;;;;;6391610;22;20010;-74
2023/12/13 02:15:26;;;;;;;9.95;1.80;;;;;;;;;;6392342;22;20017;-74
2023/12/13 02:17:52;;;;;;;9.63;2.35;;;;;;;;;;6393052;22;20516;-74
2023/12/13 02:20:18;;;;;;;4.05;1.42;;;;;;;;;;6368963;22;20014;-74
2023/12/13 02:22:44;;;;;;;6.88;1.30;;;;;;;;;;6376232;22;20018;-74
2023/12/13 02:25:15;;;;;;;13.43;2.17;;;;;;;;;;6402734;22;20021;-74
2023/12/13 02:27:43;;;;;;;9.50;1.63;;;;;;;;;;6391764;22;20081;-74
2023/12/13 02:30:09;;;;;;;11.77;1.90;;;;;;;;;;6391014;22;20090;-74
2023/12/13 02:32:36;;;;;;;9.13;1.90;;;;;;;;;;6391314;22;20009;-74
2023/12/13 02:35:03;;;;;;;8.10;1.48;;;;;;;;;;6392117;22;19990;-74
2023/12/13 02:37:28;;;;;;;10.48;1.90;;;;;;;;;;6391277;22;20014;-73
2023/12/13 02:39:55;;;;;;;8.10;1.73;;;;;;;;;;6391145;22;20066;-73
2023/12/13 02:42:21;;;;;;;5.63;1.60;;;;;;;;;;6390750;22;20465;-73
2023/12/13 02:44:46;;;;;;;9.32;1.80;;;;;;;;;;6391638;22;20085;-74
2023/12/13 02:47:11;;;;;;;9.73;1.38;;;;;;;;;;6391398;22;20081;-74
2023/12/13 02:49:37;;;;;;;9.13;1.48;;;;;;;;;;6391488;22;20013;-74
2023/12/13 02:52:02;;;;;;;7.85;1.60;;;;;;;;;;6390845;22;20359;-74
2023/12/13 02:54:28;;;;;;;7.72;1.63;;;;;;;;;;6389586;22;20005;-74
2023/12/13 02:56:53;;;;;;;11.13;1.52;;;;;;;;;;6391432;22;20512;-74
2023/12/13 02:59:18;;;;;;;9.93;1.30;;;;;;;;;;6391946;22;20459;-74
2023/12/13 03:01:44;;;;;;;11.88;2.63;;;;;;;;;;6391237;22;20017;-74
2023/12/13 03:04:09;;;;;;;9.57;1.58;;;;;;;;;;6389774;22;20025;-74
2023/12/13 03:06:34;;;;;;;11.60;2.00;;;;;;;;;;6391476;22;20033;-74
2023/12/13 03:09:00;;;;;;;4.97;1.48;;;;;;;;;;6390918;22;20040;-74
2023/12/13 03:11:25;;;;;;;9.13;1.60;;;;;;;;;;6391244;22;20001;-74
2023/12/13 03:13:50;;;;;;;12.60;2.05;;;;;;;;;;6391145;22;20038;-74
2023/12/13 03:16:16;;;;;;;10.30;1.70;;;;;;;;;;6390880;22;20010;-74
2023/12/13 03:18:41;;;;;;;8.07;1.75;;;;;;;;;;6390987;22;20035;-74
2023/12/13 03:21:07;;;;;;;6.15;1.45;;;;;;;;;;6390733;22;20014;-73
2023/12/13 03:23:32;;;;;;;10.30;1.92;;;;;;;;;;6390654;22;20020;-74
2023/12/13 03:25:57;;;;;;;6.72;2.05;;;;;;;;;;6392261;22;20443;-74
2023/12/13 03:28:23;;;;;;;9.57;1.98;;;;;;;;;;6390454;22;20404;-74
2023/12/13 03:30:48;;;;;;;3.78;1.77;;;;;;;;;;6390326;22;20049;-74
2023/12/13 03:33:13;;;;;;;13.20;2.03;;;;;;;;;;6391364;22;20055;-74
2023/12/13 03:35:39;;;;;;;9.35;1.40;;;;;;;;;;6362955;22;20005;-74
2023/12/13 03:38:04;;;;;;;7.90;1.83;;;;;;;;;;6392950;22;20520;-74
2023/12/13 03:40:30;;;;;;;10.80;2.00;;;;;;;;;;6367990;22;20565;-74
2023/12/13 03:42:55;;;;;;;7.05;1.25;;;;;;;;;;6406049;22;20017;-74
2023/12/13 03:45:23;;;;;;;5.80;1.55;;;;;;;;;;6407883;22;20010;-74
2023/12/13 03:47:48;;;;;;;3.42;1.33;;;;;;;;;;6367015;22;20006;-74
2023/12/13 03:50:14;;;;;;;14.45;1.75;;;;;;;;;;6392453;22;19998;-74
2023/12/13 03:52:39;;;;;;;7.40;1.52;;;;;;;;;;6363256;22;20010;-74
2023/12/13 03:55:05;;;;;;;11.75;1.60;;;;;;;;;;6391146;22;20443;-74
2023/12/13 03:57:31;;;;;;;10.93;1.58;;;;;;;;;;6390918;22;20022;-73
2023/12/13 03:59:56;;;;;;;6.55;1.30;;;;;;;;;;6390750;22;20010;-74
2023/12/13 04:02:22;;;;;;;17.77;2.00;;;;;;;;;;6391638;22;20020;-74
2023/12/13 04:04:47;;;;;;;4.53;1.40;;;;;;;;;;6362216;22;20079;-74
2023/12/13 04:07:13;;;;;;;9.15;1.73;;;;;;;;;;6390512;22;20010;-74
2023/12/13 04:09:38;;;;;;;6.55;1.50;;;;;;;;;;6390432;22;20040;-74
2023/12/13 04:12:04;;;;;;;6.60;1.95;;;;;;;;;;6361773;22;20005;-74
2023/12/13 04:14:29;;;;;;;5.78;2.05;;;;;;;;;;6390704;22;20028;-73
2023/12/13 04:16:55;;;;;;;6.05;1.55;;;;;;;;;;6362548;22;20005;-74
2023/12/13 04:19:20;;;;;;;9.98;1.60;;;;;;;;;;6390602;22;20017;-74
2023/12/13 04:21:45;;;;;;;8.20;1.50;;;;;;;;;;6389474;22;20025;-74
2023/12/13 04:24:11;;;;;;;8.55;1.70;;;;;;;;;;6390330;22;20043;-73
2023/12/13 04:26:36;;;;;;;6.65;1.40;;;;;;;;;;6388766;22;19998;-74
2023/12/13 04:29:02;;;;;;;10.02;1.85;;;;;;;;;;6390613;22;20058;-74
2023/12/13 04:31:27;;;;;;;4.80;1.85;;;;;;;;;;6362166;22;20331;-74
2023/12/13 04:33:52;;;;;;;7.40;1.73;;;;;;;;;;6390155;22;20101;-73
2023/12/13 04:36:18;;;;;;;11.55;1.70;;;;;;;;;;6389810;22;20020;-73
2023/12/13 04:38:44;;;;;;;12.70;1.85;;;;;;;;;;6389868;22;20451;-74
2023/12/13 04:41:09;;;;;;;6.00;1.80;;;;;;;;;;6362052;22;20001;-74
2023/12/13 04:43:35;;;;;;;9.95;2.10;;;;;;;;;;6361692;22;20523;-73
2023/12/13 04:46:00;;;;;;;8.23;1.77;;;;;;;;;;6361826;22;20512;-74
2023/12/13 04:48:25;;;;;;;19.23;2.47;;;;;;;;;;6390780;22;20016;-74
2023/12/13 04:50:51;;;;;;;5.88;1.70;;;;;;;;;;6389724;22;20036;-74
2023/12/13 04:53:16;;;;;;;8.90;1.90;;;;;;;;;;6391192;22;20013;-74
2023/12/13 04:55:41;;;;;;;8.50;1.60;;;;;;;;;;6390689;22;20013;-73
2023/12/13 04:58:07;;;;;;;6.85;1.65;;;;;;;;;;6391111;22;20013;-74
2023/12/13 05:00:32;;;;;;;7.05;1.33;;;;;;;;;;6394775;22;20493;-74
2023/12/13 05:02:58;;;;;;;10.25;1.70;;;;;;;;;;6403916;22;20014;-74
2023/12/13 05:05:23;;;;;;;8.77;1.48;;;;;;;;;;6371741;22;20052;-74
2023/12/13 05:07:48;;;;;;;6.38;1.40;;;;;;;;;;6390043;22;20014;-74
2023/12/13 05:10:14;;;;;;;6.75;1.80;;;;;;;;;;6361059;22;20027;-74
2023/12/13 05:12:39;;;;;;;11.95;2.50;;;;;;;;;;6390038;22;20017;-74
2023/12/13 05:15:05;;;;;;;9.40;1.67;;;;;;;;;;6389599;22;20062;-73
2023/12/13 05:17:30;;;;;;;6.28;1.45;;;;;;;;;;6361922;22;20024;-74
2023/12/13 05:19:56;;;;;;;9.93;1.67;;;;;;;;;;6389649;22;20013;-74
2023/12/13 05:22:21;;;;;;;7.95;1.60;;;;;;;;;;6389638;22;20101;-74
2023/12/13 05:24:46;;;;;;;15.43;2.00;;;;;;;;;;6360894;22;20017;-74
2023/12/13 05:27:12;;;;;;;8.23;1.95;;;;;;;;;;6361736;22;20385;-74
2023/12/13 05:29:37;;;;;;;7.57;1.55;;;;;;;;;;6389078;22;20062;-74
2023/12/13 05:32:03;;;;;;;12.60;1.80;;;;;;;;;;6361890;22;20012;-74
2023/12/13 05:34:28;;;;;;;5.57;1.40;;;;;;;;;;6389177;22;20085;-74
2023/12/13 05:36:53;;;;;;;9.50;1.75;;;;;;;;;;6361773;22;20010;-74
2023/12/13 05:39:19;;;;;;;10.52;2.13;;;;;;;;;;6388691;22;20015;-74
2023/12/13 05:41:44;;;;;;;5.03;1.65;;;;;;;;;;6389555;22;19997;-74
2023/12/13 05:44:09;;;;;;;9.70;1.67;;;;;;;;;;6361583;22;20033;-73
2023/12/13 05:46:35;;;;;;;11.48;1.90;;;;;;;;;;6389662;22;20039;-74
2023/12/13 05:49:03;;;;;;;12.27;1.75;;;;;;;;;;6359953;22;20010;-74
2023/12/13 05:51:28;;;;;;;10.98;2.13;;;;;;;;;;6360686;22;20013;-74
2023/12/13 05:53:53;;;;;;;8.50;1.70;;;;;;;;;;6389758;22;20010;-73
2023/12/13 05:56:19;;;;;;;7.78;2.13;;;;;;;;;;6361609;22;20027;-74
2023/12/13 05:58:44;;;;;;;12.07;2.08;;;;;;;;;;6389279;22;20461;-74
2023/12/13 06:01:09;;;;;;;6.07;1.60;;;;;;;;;;6389390;22;20006;-74
2023/12/13 06:03:35;;;;;;;8.10;1.83;;;;;;;;;;6361303;22;20504;-73
2023/12/13 06:06:00;;;;;;;9.75;2.15;;;;;;;;;;6389198;22;20776;-74
2023/12/13 06:08:26;;;;;;;7.30;2.10;;;;;;;;;;6390081;22;19997;-74
2023/12/13 06:10:51;;;;;;;12.82;2.15;;;;;;;;;;6389919;22;20006;-74
2023/12/13 06:13:17;;;;;;;10.80;1.95;;;;;;;;;;6361420;22;20496;-74
2023/12/13 06:15:43;;;;;;;5.38;1.67;;;;;;;;;;6389889;22;20453;-73
2023/12/13 06:18:09;;;;;;;6.35;1.70;;;;;;;;;;6390527;22;20084;-73
2023/12/13 06:20:35;;;;;;;5.30;1.58;;;;;;;;;;6394406;22;20531;-73
2023/12/13 06:23:00;;;;;;;6.47;1.50;;;;;;;;;;6405661;22;19990;-74
2023/12/13 06:25:25;;;;;;;6.47;1.65;;;;;;;;;;6407241;22;20475;-73
2023/12/13 06:27:51;;;;;;;7.85;2.05;;;;;;;;;;6393760;22;20096;-73
2023/12/13 06:30:16;;;;;;;5.28;1.50;;;;;;;;;;6390537;22;20122;-73
2023/12/13 06:32:41;;;;;;;10.88;1.98;;;;;;;;;;6390014;22;20610;-73
2023/12/13 06:35:07;;;;;;;3.25;1.30;;;;;;;;;;6390237;22;20512;-73
2023/12/13 06:37:32;;;;;;;12.73;1.60;;;;;;;;;;6389321;22;20815;-73
2023/12/13 06:39:57;;;;;;;11.57;2.08;;;;;;;;;;6389473;22;20002;-73
2023/12/13 06:42:23;;;;;;;4.55;1.35;;;;;;;;;;6360697;22;20044;-73
2023/12/13 06:44:48;;;;;;;10.00;1.92;;;;;;;;;;6389306;22;20016;-73
2023/12/13 06:47:14;;;;;;;8.05;1.70;;;;;;;;;;6389872;22;20490;-73
2023/12/13 06:49:39;;;;;;;6.65;2.00;;;;;;;;;;6388897;22;20093;-73
2023/12/13 06:52:05;;;;;;;8.88;2.05;;;;;;;;;;6388915;22;20041;-73
2023/12/13 06:54:30;;;;;;;11.02;2.95;;;;;;;;;;6361524;22;20392;-73
2023/12/13 06:56:56;;;;;;;11.32;2.55;;;;;;;;;;6360212;22;20012;-74
2023/12/13 06:59:21;;;;;;;20.95;5.57;;;;;;;;;;6390862;22;20130;-73
2023/12/13 07:01:47;;;;;;;8.32;2.15;;;;;;;;;;6391331;22;20063;-74
2023/12/13 07:04:13;;;;;;;16.30;2.72;;;;;;;;;;6391031;22;20016;-74
2023/12/13 07:06:38;;;;;;;6.57;1.90;;;;;;;;;;6363600;22;20034;-74
2023/12/13 07:09:03;;;;;;;9.05;1.75;;;;;;;;;;6390350;22;20025;-74
2023/12/13 07:11:29;;;;;;;3.65;1.35;;;;;;;;;;6390858;22;20023;-74
2023/12/13 07:13:54;;;;;;;9.45;1.92;;;;;;;;;;6391596;22;20002;-74
2023/12/13 07:16:20;;;;;;;10.52;1.80;;;;;;;;;;6390781;22;20822;-74
2023/12/13 07:18:45;;;;;;;11.25;1.83;;;;;;;;;;6362410;22;20058;-73
2023/12/13 07:21:11;;;;;;;5.57;1.80;;;;;;;;;;6390684;22;20143;-74
2023/12/13 07:23:36;;;;;;;7.43;2.05;;;;;;;;;;6391040;22;20533;-73
2023/12/13 07:26:02;;;;;;;11.00;2.30;;;;;;;;;;6391372;22;20048;-74
2023/12/13 07:28:28;;;;;;;9.35;2.40;;;;;;;;;;6362188;22;20013;-73
2023/12/13 07:30:55;;;;;;;11.80;1.92;;;;;;;;;;6391176;22;20018;-74
2023/12/13 07:33:20;;;;;;;12.38;2.25;;;;;;;;;;6391125;22;20073;-74
2023/12/13 07:35:47;;;;;;;10.43;1.88;;;;;;;;;;6391066;22;20037;-73
2023/12/13 07:38:13;;;;;;;9.73;1.83;;;;;;;;;;6392343;22;20484;-73
2023/12/13 07:40:38;;;;;;;7.93;1.92;;;;;;;;;;6367486;22;20012;-73
2023/12/13 07:43:04;;;;;;;4.70;1.50;;;;;;;;;;6403464;22;20037;-74
2023/12/13 07:45:29;;;;;;;8.80;1.70;;;;;;;;;;6400359;22;20694;-73
2023/12/13 07:47:55;;;;;;;12.48;2.20;;;;;;;;;;6362607;22;20006;-74
2023/12/13 07:50:20;;;;;;;8.15;1.85;;;;;;;;;;6391571;22;20017;-73
2023/12/13 07:52:45;;;;;;;9.82;2.20;;;;;;;;;;6362303;22;20613;-74
2023/12/13 07:55:12;;;;;;;9.18;1.65;;;;;;;;;;6390449;22;20063;-73
2023/12/13 07:57:38;;;;;;;9.65;1.60;;;;;;;;;;6390815;22;20010;-74
2023/12/13 08:00:04;;;;;;;15.27;1.88;;;;;;;;;;6390103;22;20541;-74
2023/12/13 08:02:31;;;;;;;7.35;1.83;;;;;;;;;;6390828;22;19997;-73
2023/12/13 08:04:57;;;;;;;12.68;1.40;;;;;;;;;;6390742;22;20025;-73
2023/12/13 08:07:22;;;;;;;7.93;1.58;;;;;;;;;;6390342;22;20848;-74
2023/12/13 08:09:47;;;;;;;6.30;1.67;;;;;;;;;;6389492;22;20010;-74
2023/12/13 08:12:13;;;;;;;7.63;1.80;;;;;;;;;;6385055;22;20024;-73
2023/12/13 08:14:39;;;;;;;11.05;1.85;;;;;;;;;;6385291;22;20001;-73
2023/12/13 08:17:08;;;;;;;6.65;1.83;;;;;;;;;;6357495;22;20086;-73
2023/12/13 08:19:34;;;;;;;4.93;1.38;;;;;;;;;;6352834;22;20026;-73
2023/12/13 08:21:59;;;;;;;8.45;1.60;;;;;;;;;;6355843;22;20041;-74
2023/12/13 08:24:24;;;;;;;4.15;1.80;;;;;;;;;;6382386;22;20052;-74
2023/12/13 08:26:50;;;;;;;6.32;2.15;;;;;;;;;;6354296;22;20009;-74
2023/12/13 08:29:15;;;;;;;5.63;1.98;;;;;;;;;;6387709;22;20022;-74
2023/12/13 08:31:41;;;;;;;8.98;2.05;;;;;;;;;;6387677;22;20014;-74
2023/12/13 08:34:06;;;;;;;9.13;1.92;;;;;;;;;;6389037;22;20017;-73
2023/12/13 08:36:32;;;;;;;6.32;2.10;;;;;;;;;;6390172;22;20485;-73
2023/12/13 08:38:57;;;;;;;8.30;2.10;;;;;;;;;;6390472;22;20071;-73
2023/12/13 08:41:22;;;;;;;8.60;2.20;;;;;;;;;;6362221;22;20009;-74
2023/12/13 08:43:48;;;;;;;9.13;2.83;;;;;;;;;;6389651;22;20033;-74
2023/12/13 08:46:13;;;;;;;8.15;2.35;;;;;;;;;;6361973;22;20084;-74
2023/12/13 08:48:39;;;;;;;7.63;2.35;;;;;;;;;;6390477;22;20528;-74
2023/12/13 08:51:04;;;;;;;11.98;2.70;;;;;;;;;;6389684;22;20018;-73
2023/12/13 08:53:29;;;;;;;5.18;2.20;;;;;;;;;;6390537;22;20008;-74
2023/12/13 08:55:55;;;;;;;10.98;2.63;;;;;;;;;;6363114;22;19997;-73
2023/12/13 08:58:20;;;;;;;8.18;2.30;;;;;;;;;;6363299;22;20090;-73
2023/12/13 09:00:46;;;;;;;10.43;2.60;;;;;;;;;;6396893;22;20029;-74
2023/12/13 09:03:11;;;;;;;12.77;3.25;;;;;;;;;;6378874;22;20009;-74
2023/12/13 09:05:37;;;;;;;10.13;2.60;;;;;;;;;;6403766;22;20014;-73
2023/12/13 09:08:06;;;;;;;4.50;2.10;;;;;;;;;;6393692;22;20043;-73
2023/12/13 09:10:34;;;;;;;9.32;2.15;;;;;;;;;;6390931;22;20476;-73
2023/12/13 09:13:04;;;;;;;4.47;2.10;;;;;;;;;;6390612;22;20450;-74
2023/12/13 09:15:31;;;;;;;7.85;2.78;;;;;;;;;;6389410;22;20010;-74
2023/12/13 09:17:56;;;;;;;8.00;2.60;;;;;;;;;;6390130;22;20061;-74
2023/12/13 09:20:22;;;;;;;6.90;2.28;;;;;;;;;;6390523;22;19998;-73
2023/12/13 09:22:47;;;;;;;8.85;2.50;;;;;;;;;;6389843;22;20034;-74
2023/12/13 09:25:15;;;;;;;12.32;2.72;;;;;;;;;;6389618;22;20010;-74
2023/12/13 09:27:42;;;;;;;11.45;2.47;;;;;;;;;;6389804;22;20081;-74
2023/12/13 09:30:11;;;;;;;9.25;2.70;;;;;;;;;;6359140;22;20074;-74
2023/12/13 09:32:38;;;;;;;5.72;2.22;;;;;;;;;;6389959;22;20002;-74
2023/12/13 09:35:04;;;;;;;8.95;2.47;;;;;;;;;;6361932;22;19998;-73
2023/12/13 09:37:29;;;;;;;7.75;2.72;;;;;;;;;;6359053;22;20013;-74
2023/12/13 09:39:55;;;;;;;5.70;2.30;;;;;;;;;;6358130;22;20098;-73
2023/12/13 09:42:20;;;;;;;10.98;2.85;;;;;;;;;;6388446;22;20045;-74
2023/12/13 09:44:49;;;;;;;6.85;2.40;;;;;;;;;;6360939;22;20840;-74
2023/12/13 09:47:16;;;;;;;10.60;3.38;;;;;;;;;;6362554;22;19994;-74
2023/12/13 09:49:42;;;;;;;7.78;2.30;;;;;;;;;;6390001;22;20018;-74
2023/12/13 09:52:09;;;;;;;11.32;2.80;;;;;;;;;;6388225;22;20519;-74
2023/12/13 09:54:38;;;;;;;7.15;2.47;;;;;;;;;;6390647;22;20550;-74
2023/12/13 09:57:05;;;;;;;11.00;2.97;;;;;;;;;;6390154;22;20087;-74
2023/12/13 09:59:30;;;;;;;11.38;2.80;;;;;;;;;;6361583;22;19994;-74
2023/12/13 10:01:56;;;;;;;6.80;3.05;;;;;;;;;;6362266;22;20295;-74
2023/12/13 10:04:29;;;;;;;10.05;2.60;;;;;;;;;;6361642;22;20956;-74
2023/12/13 10:06:56;;;;;;;9.77;2.40;;;;;;;;;;6390236;22;20014;-74
2023/12/13 10:09:26;;;;;;;8.63;3.92;;;;;;;;;;6361627;22;20039;-73
2023/12/13 10:11:52;;;;;;;10.07;3.25;;;;;;;;;;6362169;22;20010;-73
2023/12/13 10:14:17;;;;;;;7.43;3.28;;;;;;;;;;6390939;22;20077;-74
2023/12/13 10:16:42;;;;;;;7.68;2.83;;;;;;;;;;6391231;22;20055;-74
2023/12/13 10:19:08;;;;;;;9.25;3.00;;;;;;;;;;6391576;22;20645;-73
2023/12/13 10:21:34;;;;;;;9.85;3.17;;;;;;;;;;6398436;22;20080;-76
2023/12/13 10:24:00;;;;;;;7.13;3.10;;;;;;;;;;6375360;22;20037;-75
2023/12/13 10:26:25;;;;;;;7.90;3.03;;;;;;;;;;6392983;22;20001;-75
2023/12/13 10:28:51;;;;;;;12.20;3.38;;;;;;;;;;6387249;22;20376;-74
2023/12/13 10:31:21;;;;;;;11.88;3.75;;;;;;;;;;6388956;22;20113;-74
2023/12/13 10:33:47;;;;;;;15.15;3.90;;;;;;;;;;6390643;22;20487;-74
2023/12/13 10:36:13;;;;;;;12.38;3.70;;;;;;;;;;6389442;22;20018;-74
2023/12/13 10:38:38;;;;;;;14.85;3.60;;;;;;;;;;6362289;22;20033;-75
2023/12/13 10:41:06;;;;;;;11.65;3.50;;;;;;;;;;6390641;22;19993;-75
2023/12/13 10:43:33;;;;;;;9.45;3.42;;;;;;;;;;6389410;22;20089;-76
2023/12/13 10:46:00;;;;;;;12.77;3.40;;;;;;;;;;6357254;22;20055;-75
2023/12/13 10:48:35;;;;;;;13.27;3.38;;;;;;;;;;6391493;22;20021;-75
2023/12/13 10:51:00;;;;;;;5.60;2.58;;;;;;;;;;6361148;22;20071;-75
2023/12/13 10:53:30;;;;;;;12.02;3.78;;;;;;;;;;6362529;22;20600;-75
2023/12/13 10:55:57;;;;;;;6.57;3.22;;;;;;;;;;6363495;22;19997;-75
2023/12/13 10:58:24;;;;;;;10.27;3.35;;;;;;;;;;6361086;22;20014;-75
2023/12/13 11:00:50;;;;;;;7.50;2.85;;;;;;;;;;6389741;22;20020;-75
2023/12/13 11:03:19;;;;;;;5.32;3.08;;;;;;;;;;6361034;22;20096;-75
2023/12/13 11:05:45;;;;;;;9.20;2.88;;;;;;;;;;6361062;22;20049;-75
2023/12/13 11:08:19;;;;;;;7.47;2.72;;;;;;;;;;6361565;22;20002;-75
2023/12/13 11:11:04;;;;;;;10.32;3.60;;;;;;;;;;6361353;22;20422;-75
2023/12/13 11:13:30;;;;;;;9.73;3.30;;;;;;;;;;6361019;22;20085;-75
2023/12/13 11:15:57;;;;;;;8.05;3.35;;;;;;;;;;6361665;22;20097;-75
2023/12/13 11:18:24;;;;;;;7.50;3.33;;;;;;;;;;6387806;22;20009;-75
2023/12/13 11:20:58;;;;;;;13.52;3.50;;;;;;;;;;6359915;22;20674;-75
2023/12/13 11:23:27;;;;;;;10.40;3.47;;;;;;;;;;6390407;22;20001;-75
2023/12/13 11:25:56;;;;;;;11.90;3.55;;;;;;;;;;6389838;22;20010;-76
2023/12/13 11:28:22;;;;;;;10.13;4.35;;;;;;;;;;6389726;22;20018;-75
2023/12/13 11:30:48;;;;;;;12.48;5.22;;;;;;;;;;6361860;22;20515;-75
2023/12/13 11:33:20;;;;;;;12.13;4.63;;;;;;;;;;6390473;22;20010;-75
2023/12/13 11:35:46;;;;;;;9.18;3.90;;;;;;;;;;6362399;22;20534;-75
2023/12/13 11:38:12;;;;;;;11.48;3.97;;;;;;;;;;6393757;22;19998;-75
2023/12/13 11:40:39;;;;;;;10.35;4.95;;;;;;;;;;6402489;22;20065;-75
2023/12/13 11:43:05;;;;;;;12.52;4.47;;;;;;;;;;6379767;22;20014;-76
2023/12/13 11:45:31;;;;;;;7.75;3.90;;;;;;;;;;6397336;22;20010;-77
2023/12/13 11:47:56;;;;;;;10.18;4.43;;;;;;;;;;6391804;22;20090;-77
2023/12/13 11:50:22;;;;;;;9.00;4.30;;;;;;;;;;6363034;22;20040;-77
2023/12/13 11:52:48;;;;;;;9.18;4.10;;;;;;;;;;6361942;22;20481;-75
2023/12/13 11:55:13;;;;;;;9.75;4.65;;;;;;;;;;6361457;22;20394;-74
2023/12/13 11:57:39;;;;;;;11.75;4.30;;;;;;;;;;6390968;22;20013;-73
2023/12/13 12:00:05;;;;;;;11.98;4.80;;;;;;;;;;6390794;22;20092;-73
2023/12/13 12:02:31;;;;;;;13.77;4.75;;;;;;;;;;6390294;22;20001;-74
2023/12/13 12:05:01;;;;;;;11.35;5.03;;;;;;;;;;6391208;22;20013;-74
2023/12/13 12:07:26;;;;;;;13.80;5.15;;;;;;;;;;6362737;22;20017;-73
2023/12/13 12:09:53;;;;;;;9.65;4.32;;;;;;;;;;6361403;22;20070;-74
2023/12/13 12:12:19;;;;;;;8.68;4.50;;;;;;;;;;6389486;22;20459;-74
2023/12/13 12:14:48;;;;;;;11.38;4.88;;;;;;;;;;6361067;22;20461;-75
2023/12/13 12:17:19;;;;;;;9.98;4.65;;;;;;;;;;6362427;22;20350;-74
2023/12/13 12:19:45;;;;;;;8.90;4.90;;;;;;;;;;6361964;22;20006;-75
2023/12/13 12:22:12;;;;;;;14.60;5.43;;;;;;;;;;6390358;22;20080;-74
2023/12/13 12:24:37;;;;;;;9.48;4.13;;;;;;;;;;6389821;22;20033;-74
2023/12/13 12:27:12;;;;;;;9.00;4.38;;;;;;;;;;6390445;22;20014;-74
2023/12/13 12:29:39;;;;;;;12.20;5.00;;;;;;;;;;6389711;22;20040;-74
2023/12/13 12:32:08;;;;;;;11.05;5.20;;;;;;;;;;6390255;22;20005;-74
2023/12/13 12:34:35;;;;;;;14.00;5.18;;;;;;;;;;6389677;22;20089;-75
2023/12/13 12:37:02;;;;;;;12.95;5.53;;;;;;;;;;6390512;22;20772;-73
2023/12/13 12:39:28;;;;;;;13.35;5.60;;;;;;;;;;6390242;22;20014;-74
2023/12/13 12:41:55;;;;;;;15.10;6.30;;;;;;;;;;6360815;22;20512;-74
2023/12/13 12:44:20;;;;;;;11.98;6.78;;;;;;;;;;6390655;22;20433;-74
2023/12/13 12:46:45;;;;;;;13.05;5.65;;;;;;;;;;6389515;22;20071;-74
2023/12/13 12:49:11;;;;;;;11.88;5.57;;;;;;;;;;6388966;22;20072;-74
2023/12/13 12:51:36;;;;;;;12.18;5.78;;;;;;;;;;6389816;22;20013;-74
2023/12/13 12:54:01;;;;;;;11.43;5.10;;;;;;;;;;6362039;22;20044;-74
2023/12/13 12:56:27;;;;;;;10.02;5.70;;;;;;;;;;6362231;22;20006;-75
2023/12/13 12:58:52;;;;;;;12.32;6.05;;;;;;;;;;6397053;22;20021;-74
2023/12/13 13:01:17;;;;;;;9.43;4.85;;;;;;;;;;6404116;22;20010;-74
2023/12/13 13:03:44;;;;;;;11.38;5.18;;;;;;;;;;6370472;22;20123;-74
2023/12/13 13:06:09;;;;;;;13.20;4.78;;;;;;;;;;6389769;22;20026;-74
2023/12/13 13:08:35;;;;;;;11.75;4.95;;;;;;;;;;6389358;22;19998;-74
2023/12/13 13:11:01;;;;;;;9.70;4.97;;;;;;;;;;6390587;22;20457;-74
2023/12/13 13:13:26;;;;;;;11.57;5.80;;;;;;;;;;6389848;22;20014;-75
2023/12/13 13:15:52;;;;;;;8.35;5.13;;;;;;;;;;6389548;22;20014;-74
2023/12/13 13:18:17;;;;;;;8.70;4.78;;;;;;;;;;6361852;22;20018;-74
2023/12/13 13:20:42;;;;;;;9.48;5.07;;;;;;;;;;6361454;22;20489;-74
2023/12/13 13:23:08;;;;;;;8.85;4.78;;;;;;;;;;6361192;22;20001;-74
2023/12/13 13:25:33;;;;;;;8.23;5.20;;;;;;;;;;6389579;22;20013;-74
2023/12/13 13:27:59;;;;;;;11.27;5.32;;;;;;;;;;6390050;22;20017;-74
2023/12/13 13:30:24;;;;;;;10.18;5.60;;;;;;;;;;6360830;22;20018;-74
2023/12/13 13:32:49;;;;;;;13.18;6.60;;;;;;;;;;6360687;22;20001;-74
2023/12/13 13:35:15;;;;;;;10.93;5.68;;;;;;;;;;6390471;22;20088;-75
2023/12/13 13:37:40;;;;;;;11.40;5.45;;;;;;;;;;6390024;22;20001;-75
2023/12/13 13:40:06;;;;;;;8.80;4.60;;;;;;;;;;6360837;22;20338;-76
2023/12/13 13:42:32;;;;;;;9.82;5.00;;;;;;;;;;6388747;22;20018;-75
2023/12/13 13:44:58;;;;;;;10.40;5.20;;;;;;;;;;6388022;22;20206;-76
2023/12/13 13:47:23;;;;;;;8.93;4.22;;;;;;;;;;6388396;22;20104;-79
2023/12/13 13:49:49;;;;;;;7.63;4.20;;;;;;;;;;6383288;22;20492;-76
2023/12/13 13:52:14;;;;;;;5.93;2.95;;;;;;;;;;6359834;22;20130;-77
2023/12/13 13:54:39;;;;;;;5.88;2.88;;;;;;;;;;6361052;22;20011;-76
2023/12/13 13:57:06;;;;;;;7.32;3.30;;;;;;;;;;6360955;22;20013;-77
2023/12/13 13:59:31;;;;;;;5.43;2.42;;;;;;;;;;6360960;22;20047;-77
2023/12/13 14:01:57;;;;;;;7.22;2.78;;;;;;;;;;6360809;22;20002;-76
2023/12/13 14:04:23;;;;;;;5.30;2.50;;;;;;;;;;6357926;22;20485;-77
2023/12/13 14:06:49;;;;;;;6.25;2.60;;;;;;;;;;6389667;22;20464;-76
2023/12/13 14:09:14;;;;;;;6.35;2.38;;;;;;;;;;6391741;22;20006;-76
2023/12/13 14:11:40;;;;;;;7.80;2.78;;;;;;;;;;6363528;22;20008;-76
2023/12/13 14:14:05;;;;;;;5.15;2.65;;;;;;;;;;6363239;22;19997;-76
2023/12/13 14:16:30;;;;;;;5.50;2.83;;;;;;;;;;6393152;22;20711;-76
2023/12/13 14:18:56;;;;;;;5.03;2.42;;;;;;;;;;6399301;22;20063;-76
2023/12/13 14:21:22;;;;;;;8.32;2.47;;;;;;;;;;6410244;22;20021;-76
2023/12/13 14:23:48;;;;;;;6.53;2.50;;;;;;;;;;6379100;22;20044;-76
2023/12/13 14:26:14;;;;;;;5.07;2.00;;;;;;;;;;6367544;22;20002;-76
2023/12/13 14:28:39;;;;;;;6.18;2.40;;;;;;;;;;6364898;22;20039;-76
2023/12/13 14:31:06;;;;;;;6.45;2.67;;;;;;;;;;6364235;22;20887;-76